createdAt,value
2023-03-21T00:01:53.691Z,86.00
2023-03-21T00:04:23.153Z,85.99
2023-03-21T00:06:53.340Z,86.22
2023-03-21T00:09:22.752Z,86.23
2023-03-21T00:11:51.582Z,86.33
2023-03-21T00:14:20.542Z,86.35
2023-03-21T00:16:51.098Z,86.39
2023-03-21T00:19:22.025Z,86.34
2023-03-21T00:22:06.590Z,86.24
2023-03-21T00:24:37.006Z,86.64
2023-03-21T00:27:30.271Z,86.87
2023-03-21T00:29:57.249Z,86.88
2023-03-21T00:32:26.132Z,86.92
2023-03-21T00:35:08.120Z,87.08
2023-03-21T00:37:44.248Z,86.83
2023-03-21T00:40:26.730Z,87.11
2023-03-21T00:42:59.680Z,87.03
2023-03-21T00:45:28.406Z,86.84
2023-03-21T00:47:57.349Z,87.00
2023-03-21T00:50:27.085Z,86.78
2023-03-21T00:52:58.313Z,86.90
2023-03-21T00:55:27.362Z,86.90
2023-03-21T00:58:02.080Z,86.75
2023-03-21T01:00:33.090Z,86.63
2023-03-21T01:03:17.684Z,86.56
2023-03-21T01:06:07.566Z,86.81
2023-03-21T01:08:55.281Z,86.98
2023-03-21T01:11:28.869Z,87.14
2023-03-21T01:14:11.197Z,87.24
2023-03-21T01:16:44.148Z,87.25
2023-03-21T01:19:24.930Z,87.31
2023-03-21T01:21:57.327Z,86.91
2023-03-21T01:24:28.108Z,86.79
2023-03-21T01:26:56.858Z,87.13
2023-03-21T01:29:25.654Z,87.15
2023-03-21T01:31:55.842Z,87.14
2023-03-21T01:34:24.620Z,87.51
2023-03-21T01:36:53.298Z,87.40
2023-03-21T01:39:22.870Z,87.34
2023-03-21T01:41:53.835Z,87.54
2023-03-21T01:44:29.990Z,87.29
2023-03-21T01:47:10.488Z,87.26
2023-03-21T01:49:46.306Z,87.29
2023-03-21T01:52:36.508Z,87.42
2023-03-21T01:55:16.244Z,88.14
2023-03-21T01:58:07.363Z,88.16
2023-03-21T02:01:04.926Z,88.31
2023-03-21T02:03:51.813Z,89.14
2023-03-21T02:06:50.702Z,89.85
2023-03-21T02:09:37.802Z,89.90
2023-03-21T02:12:12.696Z,90.37
2023-03-21T02:14:43.925Z,90.52
2023-03-21T02:17:46.426Z,90.88
2023-03-21T02:21:02.624Z,91.28
2023-03-21T02:24:37.915Z,91.34
2023-03-21T02:27:14.359Z,90.05
2023-03-21T02:30:51.658Z,89.79
2023-03-21T02:34:03.698Z,87.81
2023-03-21T02:37:06.847Z,86.83
2023-03-21T02:39:52.120Z,87.00
2023-03-21T02:42:30.017Z,85.41
2023-03-21T02:45:06.620Z,84.90
2023-03-21T02:47:44.056Z,84.88
2023-03-21T02:50:19.825Z,85.92
2023-03-21T02:52:52.328Z,87.17
2023-03-21T02:55:44.324Z,88.31
2023-03-21T02:58:33.866Z,88.98
2023-03-21T03:01:03.223Z,88.92
2023-03-21T03:03:39.653Z,89.02
2023-03-21T03:06:19.988Z,89.50
2023-03-21T03:09:14.496Z,90.06
2023-03-21T03:11:45.947Z,90.38
2023-03-21T03:14:56.448Z,90.43
2023-03-21T03:17:52.089Z,90.68
2023-03-21T03:20:37.135Z,90.44
2023-03-21T03:23:19.623Z,90.42
2023-03-21T03:25:58.825Z,90.56
2023-03-21T03:28:37.250Z,90.43
2023-03-21T03:31:16.434Z,90.66
2023-03-21T03:33:57.168Z,90.70
2023-03-21T03:36:33.116Z,91.13
2023-03-21T03:39:16.641Z,90.69
2023-03-21T03:42:12.634Z,90.48
2023-03-21T03:44:51.390Z,90.63
2023-03-21T03:47:35.043Z,90.84
2023-03-21T03:50:18.087Z,90.68
2023-03-21T03:52:57.271Z,90.68
2023-03-21T03:55:34.565Z,90.89
2023-03-21T03:58:21.689Z,90.99
2023-03-21T04:00:53.848Z,90.87
2023-03-21T04:03:23.277Z,90.85
2023-03-21T04:05:54.473Z,90.57
2023-03-21T04:08:23.417Z,90.90
2023-03-21T04:10:55.595Z,90.86
2023-03-21T04:13:26.696Z,90.60
2023-03-21T04:16:11.708Z,90.62
2023-03-21T04:18:41.390Z,90.83
2023-03-21T04:21:13.485Z,90.79
2023-03-21T04:23:43.365Z,90.74
2023-03-21T04:26:12.500Z,90.60
2023-03-21T04:28:48.966Z,90.50
2023-03-21T04:31:27.321Z,90.54
2023-03-21T04:34:10.067Z,90.19
2023-03-21T04:36:44.671Z,90.26
2023-03-21T04:39:14.198Z,90.57
2023-03-21T04:41:47.003Z,90.39
2023-03-21T04:44:18.588Z,90.48
2023-03-21T04:46:48.448Z,90.43
2023-03-21T04:49:18.507Z,90.39
2023-03-21T04:51:47.189Z,90.64
2023-03-21T04:54:21.984Z,90.26
2023-03-21T04:56:52.198Z,90.42
2023-03-21T04:59:22.568Z,90.78
2023-03-21T05:01:52.406Z,90.80
2023-03-21T05:04:21.817Z,90.81
2023-03-21T05:06:50.842Z,90.76
2023-03-21T05:09:19.970Z,90.89
2023-03-21T05:11:48.624Z,91.15
2023-03-21T05:14:22.600Z,91.24
2023-03-21T05:16:56.236Z,91.04
2023-03-21T05:19:35.382Z,91.18
2023-03-21T05:22:08.197Z,91.04
2023-03-21T05:24:39.380Z,90.86
2023-03-21T05:27:10.936Z,91.13
2023-03-21T05:29:46.435Z,90.79
2023-03-21T05:32:15.078Z,91.12
2023-03-21T05:34:43.741Z,91.03
2023-03-21T05:37:12.549Z,91.35
2023-03-21T05:39:48.431Z,91.32
2023-03-21T05:42:27.481Z,90.89
2023-03-21T05:44:58.320Z,91.12
2023-03-21T05:47:36.451Z,91.18
2023-03-21T05:50:07.524Z,91.11
2023-03-21T05:52:37.036Z,90.38
2023-03-21T05:55:13.327Z,90.06
2023-03-21T05:57:42.189Z,89.85
2023-03-21T06:00:22.065Z,89.51
2023-03-21T06:03:13.542Z,89.72
2023-03-21T06:06:03.570Z,90.56
2023-03-21T06:08:38.039Z,90.43
2023-03-21T06:11:20.717Z,90.30
2023-03-21T06:13:50.797Z,89.40
2023-03-21T06:16:21.101Z,89.61
2023-03-21T06:18:49.873Z,90.03
2023-03-21T06:21:34.557Z,90.09
2023-03-21T06:24:03.861Z,89.55
2023-03-21T06:26:32.823Z,89.64
2023-03-21T06:29:02.914Z,89.34
2023-03-21T06:31:38.379Z,89.11
2023-03-21T06:34:11.913Z,89.03
2023-03-21T06:36:44.994Z,88.42
2023-03-21T06:39:16.130Z,88.39
2023-03-21T06:41:46.420Z,87.93
2023-03-21T06:44:15.229Z,89.48
2023-03-21T06:46:54.435Z,89.89
2023-03-21T06:49:23.876Z,90.06
2023-03-21T06:51:52.584Z,90.23
2023-03-21T06:54:22.935Z,89.79
2023-03-21T06:56:57.159Z,89.49
2023-03-21T06:59:30.425Z,88.87
2023-03-21T07:02:13.565Z,89.01
2023-03-21T07:04:48.429Z,88.98
2023-03-21T07:07:27.703Z,88.90
2023-03-21T07:09:56.441Z,87.85
2023-03-21T07:12:26.102Z,87.90
2023-03-21T07:15:17.579Z,89.43
2023-03-21T07:17:49.010Z,89.58
2023-03-21T07:20:18.369Z,88.33
2023-03-21T07:22:47.075Z,88.38
2023-03-21T07:25:17.387Z,88.85
2023-03-21T07:27:46.457Z,88.38
2023-03-21T07:30:15.675Z,88.05
2023-03-21T07:32:45.664Z,87.90
2023-03-21T07:35:19.129Z,88.14
2023-03-21T07:37:47.741Z,87.84
2023-03-21T07:40:19.202Z,87.80
2023-03-21T07:42:51.139Z,87.73
2023-03-21T07:45:31.480Z,87.23
2023-03-21T07:48:00.303Z,87.28
2023-03-21T07:50:30.370Z,86.84
2023-03-21T07:52:59.097Z,86.54
2023-03-21T07:55:30.561Z,85.55
2023-03-21T07:57:59.818Z,87.07
2023-03-21T08:00:28.883Z,85.20
2023-03-21T08:02:59.123Z,85.55
2023-03-21T08:05:32.453Z,85.87
2023-03-21T08:08:01.341Z,85.75
2023-03-21T08:10:30.462Z,87.13
2023-03-21T08:12:59.158Z,85.84
2023-03-21T08:15:28.000Z,85.86
2023-03-21T08:17:56.606Z,85.64
2023-03-21T08:20:25.199Z,85.88
2023-03-21T08:22:55.483Z,85.57
2023-03-21T08:25:24.568Z,85.23
2023-03-21T08:27:53.727Z,85.41
2023-03-21T08:30:25.931Z,85.14
2023-03-21T08:33:01.142Z,86.18
2023-03-21T08:35:31.579Z,86.33
2023-03-21T08:38:04.096Z,84.62
2023-03-21T08:40:32.773Z,84.49
2023-03-21T08:43:01.633Z,83.98
2023-03-21T08:45:30.591Z,83.23
2023-03-21T08:47:59.254Z,82.36
2023-03-21T08:50:31.744Z,84.03
2023-03-21T08:53:01.764Z,82.82
2023-03-21T08:55:31.735Z,82.43
2023-03-21T08:58:00.985Z,83.12
2023-03-21T09:00:30.074Z,80.85
2023-03-21T09:02:59.003Z,80.31
2023-03-21T09:05:28.566Z,80.85
2023-03-21T09:07:57.745Z,81.63
2023-03-21T09:10:27.814Z,82.52
2023-03-21T09:12:57.267Z,82.43
2023-03-21T09:15:29.591Z,81.52
2023-03-21T09:18:13.136Z,82.59
2023-03-21T09:20:43.033Z,81.65
2023-03-21T09:23:13.271Z,81.79
2023-03-21T09:25:46.103Z,81.81
2023-03-21T09:28:14.746Z,81.17
2023-03-21T09:30:43.777Z,81.31
2023-03-21T09:33:21.281Z,80.36
2023-03-21T09:35:52.106Z,79.71
2023-03-21T09:38:22.072Z,80.30
2023-03-21T09:41:08.994Z,81.47
2023-03-21T09:43:52.543Z,81.42
2023-03-21T09:46:32.769Z,80.97
2023-03-21T09:49:07.916Z,81.26
2023-03-21T09:51:43.032Z,81.80
2023-03-21T09:54:22.593Z,81.02
2023-03-21T09:56:58.301Z,78.69
2023-03-21T09:59:36.741Z,78.80
2023-03-21T10:02:21.946Z,77.57
2023-03-21T10:04:51.015Z,79.27
2023-03-21T10:07:19.997Z,80.80
2023-03-21T10:09:53.232Z,78.59
2023-03-21T10:12:30.791Z,77.32
2023-03-21T10:15:05.578Z,77.32
2023-03-21T10:17:42.911Z,76.41
2023-03-21T10:20:21.438Z,76.08
2023-03-21T10:22:55.124Z,77.94
2023-03-21T10:25:30.054Z,77.20
2023-03-21T10:28:03.026Z,76.77
2023-03-21T10:30:41.263Z,77.03
2023-03-21T10:33:17.254Z,76.20
2023-03-21T10:35:51.871Z,75.55
2023-03-21T10:38:24.236Z,75.27
2023-03-21T10:40:53.549Z,76.35
2023-03-21T10:43:37.978Z,77.35
2023-03-21T10:46:14.971Z,78.20
2023-03-21T10:48:47.225Z,76.96
2023-03-21T10:51:21.897Z,76.09
2023-03-21T10:53:56.288Z,74.16
2023-03-21T10:56:29.081Z,74.54
2023-03-21T10:59:03.550Z,74.11
2023-03-21T11:01:40.692Z,77.38
2023-03-21T11:04:16.718Z,75.28
2023-03-21T11:06:51.997Z,77.61
2023-03-21T11:09:25.094Z,77.43
2023-03-21T11:11:56.739Z,74.34
2023-03-21T11:14:41.768Z,78.77
2023-03-21T11:17:24.166Z,76.52
2023-03-21T11:19:55.781Z,74.65
2023-03-21T11:22:27.587Z,75.02
2023-03-21T11:25:01.725Z,74.70
2023-03-21T11:27:34.692Z,78.19
2023-03-21T11:30:18.470Z,71.36
2023-03-21T11:32:47.147Z,70.82
2023-03-21T11:35:23.068Z,72.37
2023-03-21T11:37:56.190Z,70.63
2023-03-21T11:40:30.314Z,71.76
2023-03-21T11:43:01.202Z,73.75
2023-03-21T11:45:34.073Z,73.99
2023-03-21T11:48:09.596Z,71.98
2023-03-21T11:50:42.947Z,74.49
2023-03-21T11:53:28.050Z,74.67
2023-03-21T11:56:17.126Z,74.89
2023-03-21T11:59:22.051Z,75.13
2023-03-21T12:02:51.535Z,74.88
2023-03-21T12:06:04.383Z,75.55
2023-03-21T12:08:46.066Z,75.17
2023-03-21T12:11:26.428Z,75.61
2023-03-21T12:14:08.701Z,75.46
2023-03-21T12:17:02.016Z,76.33
2023-03-21T12:20:10.578Z,75.02
2023-03-21T12:23:09.435Z,76.64
2023-03-21T12:29:21.012Z,75.26
2023-03-21T12:32:12.353Z,75.71
2023-03-21T12:35:09.416Z,75.63
2023-03-21T12:37:55.542Z,76.67
2023-03-21T12:40:50.404Z,76.90
2023-03-21T12:43:43.693Z,76.97
2023-03-21T12:46:22.685Z,76.62
2023-03-21T12:48:56.653Z,77.94
2023-03-21T12:51:34.610Z,77.59
2023-03-21T12:54:32.446Z,75.49
2023-03-21T12:57:08.150Z,75.16
2023-03-21T12:59:45.520Z,74.98
2023-03-21T13:02:27.282Z,75.23
2023-03-21T13:05:07.385Z,76.03
2023-03-21T13:07:42.774Z,74.35
2023-03-21T13:10:18.055Z,74.87
2023-03-21T13:12:59.775Z,73.65
2023-03-21T13:15:50.878Z,73.46
2023-03-21T13:18:39.647Z,74.20
2023-03-21T13:21:19.485Z,73.78
2023-03-21T13:24:05.182Z,73.48
2023-03-21T13:26:52.647Z,74.30
2023-03-21T13:29:28.295Z,74.76
2023-03-21T13:32:09.487Z,73.37
2023-03-21T13:34:43.259Z,72.81
2023-03-21T13:37:19.950Z,73.13
2023-03-21T13:39:51.386Z,73.13
2023-03-21T13:42:31.907Z,72.73
2023-03-21T13:45:03.489Z,73.17
2023-03-21T13:47:52.876Z,72.61
2023-03-21T13:50:35.443Z,72.12
2023-03-21T13:53:25.541Z,70.68
2023-03-21T13:56:49.904Z,67.93
2023-03-21T13:59:38.386Z,69.48
2023-03-21T14:02:33.143Z,69.45
2023-03-21T14:05:07.342Z,67.50
2023-03-21T14:07:42.898Z,66.58
2023-03-21T14:10:25.243Z,66.97
2023-03-21T14:12:56.427Z,67.30
2023-03-21T14:15:31.544Z,67.26
2023-03-21T14:18:15.868Z,67.52
2023-03-21T14:20:55.448Z,67.81
2023-03-21T14:23:26.396Z,68.11
2023-03-21T14:25:55.454Z,68.80
2023-03-21T14:28:29.712Z,68.27
2023-03-21T14:31:02.871Z,68.16
2023-03-21T14:33:37.757Z,67.70
2023-03-21T14:36:12.422Z,69.36
2023-03-21T14:38:42.007Z,69.05
2023-03-21T14:41:26.439Z,69.06
2023-03-21T14:44:28.997Z,69.44
2023-03-21T14:47:07.108Z,69.76
2023-03-21T14:49:41.890Z,69.05
2023-03-21T14:52:24.761Z,68.60
2023-03-21T14:55:24.109Z,69.58
2023-03-21T14:57:56.222Z,68.62
2023-03-21T15:00:29.838Z,69.07
2023-03-21T15:03:03.055Z,69.76
2023-03-21T15:05:37.301Z,69.82
2023-03-21T15:08:15.522Z,70.01
2023-03-21T15:11:07.121Z,70.63
2023-03-21T15:13:41.762Z,70.85
2023-03-21T15:16:14.929Z,70.95
2023-03-21T15:18:46.815Z,71.31
2023-03-21T15:21:23.386Z,71.59
2023-03-21T15:23:57.445Z,72.12
2023-03-21T15:26:31.737Z,72.24
2023-03-21T15:29:10.780Z,72.24
2023-03-21T15:31:42.652Z,72.38
2023-03-21T15:34:22.057Z,72.33
2023-03-21T15:36:58.509Z,71.70
2023-03-21T15:39:30.120Z,69.98
2023-03-21T15:42:05.664Z,69.24
2023-03-21T15:44:36.728Z,68.96
2023-03-21T15:47:05.709Z,69.44
2023-03-21T15:49:44.680Z,69.13
2023-03-21T15:52:17.065Z,68.21
2023-03-21T15:54:50.334Z,66.53
2023-03-21T15:57:24.354Z,66.55
2023-03-21T16:00:09.628Z,65.36
2023-03-21T16:02:43.833Z,66.86
2023-03-21T16:05:27.573Z,67.67
2023-03-21T16:08:00.626Z,68.30
2023-03-21T16:10:32.884Z,68.46
2023-03-21T16:13:01.987Z,68.65
2023-03-21T16:15:31.180Z,68.54
2023-03-21T16:18:03.681Z,68.99
2023-03-21T16:20:41.081Z,69.51
2023-03-21T16:23:12.462Z,70.09
2023-03-21T16:25:44.630Z,70.40
2023-03-21T16:28:16.760Z,70.31
2023-03-21T16:30:45.697Z,71.04
2023-03-21T16:33:14.992Z,71.18
2023-03-21T16:35:45.076Z,71.15
2023-03-21T16:38:15.522Z,71.44
2023-03-21T16:40:44.501Z,72.18
2023-03-21T16:43:14.137Z,71.96
2023-03-21T16:45:42.833Z,72.14
2023-03-21T16:48:16.589Z,72.63
2023-03-21T16:50:49.574Z,72.91
2023-03-21T16:53:18.337Z,73.22
2023-03-21T16:55:49.681Z,73.69
2023-03-21T16:58:18.367Z,73.63
2023-03-21T17:00:47.333Z,73.81
2023-03-21T17:03:19.276Z,74.43
2023-03-21T17:05:49.565Z,74.62
2023-03-21T17:08:21.877Z,74.74
2023-03-21T17:10:50.549Z,74.99
2023-03-21T17:13:19.204Z,74.80
2023-03-21T17:15:48.043Z,74.62
2023-03-21T17:18:20.653Z,74.88
2023-03-21T17:20:51.129Z,74.54
2023-03-21T17:23:19.740Z,74.38
2023-03-21T17:25:54.541Z,74.62
2023-03-21T17:28:25.030Z,74.55
2023-03-21T17:30:56.955Z,74.65
2023-03-21T17:33:25.766Z,74.72
2023-03-21T17:35:55.932Z,74.73
2023-03-21T17:38:31.316Z,75.15
2023-03-21T17:41:00.641Z,75.26
2023-03-21T17:43:41.765Z,75.46
2023-03-21T17:46:14.795Z,76.48
2023-03-21T17:48:44.889Z,76.28
2023-03-21T17:51:16.570Z,76.66
2023-03-21T17:53:46.179Z,76.73
2023-03-21T17:56:18.893Z,77.24
2023-03-21T17:58:48.217Z,77.28
2023-03-21T18:01:17.043Z,76.64
2023-03-21T18:03:45.732Z,76.58
2023-03-21T18:06:19.984Z,76.55
2023-03-21T18:08:49.761Z,76.40
2023-03-21T18:11:20.785Z,76.80
2023-03-21T18:13:49.876Z,76.78
2023-03-21T18:16:21.628Z,76.85
2023-03-21T18:18:51.055Z,76.94
2023-03-21T18:21:23.012Z,77.04
2023-03-21T18:23:53.840Z,76.89
2023-03-21T18:26:24.507Z,76.81
2023-03-21T18:29:43.907Z,76.80
2023-03-21T18:31:54.402Z,76.90
2023-03-21T18:34:32.102Z,77.16
2023-03-21T18:37:03.911Z,77.21
2023-03-21T18:39:33.740Z,77.35
2023-03-21T18:42:04.634Z,77.56
2023-03-21T18:44:38.785Z,77.63
2023-03-21T18:47:08.597Z,77.63
2023-03-21T18:52:27.513Z,77.73
2023-03-21T18:54:56.177Z,77.73
2023-03-21T18:57:36.464Z,77.80
2023-03-21T19:00:12.918Z,78.02
2023-03-21T19:02:47.061Z,78.03
2023-03-21T19:05:19.542Z,78.39
2023-03-21T19:07:50.560Z,78.47
2023-03-21T19:10:21.985Z,78.63
2023-03-21T19:12:52.551Z,78.63
2023-03-21T19:15:24.167Z,78.46
2023-03-21T19:20:45.591Z,78.13
2023-03-21T19:23:17.269Z,78.30
2023-03-21T19:25:46.905Z,78.33
2023-03-21T19:28:15.796Z,78.57
2023-03-21T19:30:50.333Z,78.49
2023-03-21T19:33:20.097Z,78.64
2023-03-21T19:35:50.389Z,78.53
2023-03-21T19:38:20.487Z,78.61
2023-03-21T19:40:49.160Z,78.76
2023-03-21T19:43:32.331Z,78.58
2023-03-21T19:46:02.115Z,78.65
2023-03-21T19:48:32.014Z,78.32
2023-03-21T19:51:30.184Z,78.27
2023-03-21T19:53:52.658Z,78.44
2023-03-21T19:56:24.616Z,78.16
2023-03-21T19:58:55.668Z,77.85
2023-03-21T20:01:25.426Z,77.44
2023-03-21T20:03:54.558Z,77.47
2023-03-21T20:06:24.093Z,77.64
2023-03-21T20:09:41.257Z,77.44
2023-03-21T20:11:44.154Z,77.49
2023-03-21T20:14:12.857Z,77.33
2023-03-21T20:16:43.631Z,77.51
2023-03-21T20:19:16.106Z,76.93
2023-03-21T20:21:52.893Z,76.86
2023-03-21T20:24:27.079Z,76.71
2023-03-21T20:26:57.323Z,76.63
2023-03-21T20:32:15.759Z,76.50
2023-03-21T20:34:46.124Z,76.41
2023-03-21T20:37:14.980Z,76.86
2023-03-21T20:39:45.324Z,76.20
2023-03-21T20:42:13.990Z,76.12
2023-03-21T20:44:57.985Z,76.15
2023-03-21T20:47:28.147Z,76.33
2023-03-21T20:49:58.586Z,76.35
2023-03-21T20:52:54.859Z,76.38
2023-03-21T20:55:20.025Z,76.48
2023-03-21T20:57:49.013Z,76.36
2023-03-21T21:00:22.054Z,76.35
2023-03-21T21:02:51.956Z,76.74
2023-03-21T21:05:27.772Z,76.59
2023-03-21T21:07:59.223Z,76.46
2023-03-21T21:10:33.614Z,76.47
2023-03-21T21:13:02.532Z,76.39
2023-03-21T21:15:31.399Z,76.19
2023-03-21T21:18:08.288Z,76.39
2023-03-21T21:20:38.790Z,76.02
2023-03-21T21:23:09.585Z,75.79
2023-03-21T21:25:40.013Z,75.87
2023-03-21T21:28:09.718Z,75.76
2023-03-21T21:30:41.469Z,75.61
2023-03-21T21:33:10.704Z,75.92
2023-03-21T21:35:39.639Z,75.97
2023-03-21T21:38:08.292Z,76.13
2023-03-21T21:40:37.475Z,76.01
2023-03-21T21:43:07.737Z,76.31
2023-03-21T21:45:36.842Z,76.47
2023-03-21T21:48:06.866Z,77.06
2023-03-21T21:50:36.966Z,77.19
2023-03-21T21:53:06.668Z,77.41
2023-03-21T21:55:36.182Z,77.43
2023-03-21T21:58:08.694Z,77.99
2023-03-21T22:00:39.419Z,77.73
2023-03-21T22:03:09.323Z,78.02
2023-03-21T22:05:37.979Z,78.12
2023-03-21T22:08:10.513Z,78.18
2023-03-21T22:10:39.429Z,78.24
2023-03-21T22:13:08.238Z,78.33
2023-03-21T22:15:38.251Z,78.50
2023-03-21T22:18:07.207Z,78.65
2023-03-21T22:20:35.831Z,78.70
2023-03-21T22:23:04.671Z,78.73
2023-03-21T22:25:34.261Z,78.80
2023-03-21T22:28:03.209Z,78.69
2023-03-21T22:30:32.717Z,78.60
2023-03-21T22:33:09.791Z,78.43
2023-03-21T22:35:39.292Z,78.50
2023-03-21T22:38:08.048Z,78.17
2023-03-21T22:40:36.756Z,78.41
2023-03-21T22:43:05.496Z,78.35
2023-03-21T22:45:34.958Z,78.23
2023-03-21T22:48:06.290Z,78.42
2023-03-21T22:50:35.058Z,78.21
2023-03-21T22:53:03.725Z,78.29
2023-03-21T22:55:32.509Z,78.05
2023-03-21T22:58:01.270Z,78.18
2023-03-21T23:00:29.987Z,78.20
2023-03-21T23:02:59.703Z,78.24
2023-03-21T23:05:29.845Z,78.02
2023-03-21T23:07:58.593Z,78.35
2023-03-21T23:10:27.247Z,78.12
2023-03-21T23:12:55.862Z,78.49
2023-03-21T23:15:24.474Z,78.20
2023-03-21T23:17:53.141Z,78.54
2023-03-21T23:20:21.733Z,78.64
2023-03-21T23:22:51.831Z,78.53
2023-03-21T23:25:21.053Z,78.68
2023-03-21T23:27:49.819Z,78.74
2023-03-21T23:30:18.641Z,78.70
2023-03-21T23:32:47.780Z,78.77
2023-03-21T23:35:16.504Z,78.96
2023-03-21T23:37:50.023Z,78.90
2023-03-21T23:40:20.941Z,78.95
2023-03-21T23:42:49.776Z,79.20
2023-03-21T23:45:18.843Z,79.17
2023-03-21T23:47:47.525Z,79.23
2023-03-21T23:50:16.292Z,79.49
2023-03-21T23:52:44.982Z,79.07
2023-03-21T23:55:13.919Z,79.30
2023-03-21T23:57:43.988Z,79.37
